createdAt,value
2022-11-04T00:01:32.594Z,69.93
2022-11-04T00:27:05.366Z,53.17
2022-11-04T01:12:30.343Z,35.13
2022-11-04T01:58:11.632Z,31.53
2022-11-04T02:34:19.739Z,23.90
2022-11-04T03:09:11.437Z,21.90
2022-11-04T03:34:29.645Z,17.50
2022-11-04T04:00:10.406Z,18.00
2022-11-04T04:25:34.665Z,13.60
2022-11-04T05:06:22.797Z,14.93
2022-11-04T05:36:25.003Z,13.27
2022-11-04T05:57:05.359Z,13.57
2022-11-04T06:27:39.054Z,13.23
2022-11-04T06:57:23.096Z,13.13
2022-11-04T08:09:01.441Z,11.17
2022-11-04T08:13:25.586Z,17.03
2022-11-04T08:39:26.105Z,17.10
2022-11-04T09:09:49.815Z,13.47
2022-11-04T09:34:56.345Z,14.63
2022-11-04T11:46:35.844Z,13.00
2022-11-04T13:08:14.985Z,12.20
2022-11-04T13:53:46.658Z,9.10
2022-11-04T14:28:48.913Z,13.20
2022-11-04T15:19:57.289Z,14.13
2022-11-04T15:44:51.214Z,15.23
2022-11-04T16:10:39.630Z,16.93
2022-11-04T16:40:35.304Z,17.73
2022-11-04T17:01:24.461Z,19.80
2022-11-04T17:26:50.135Z,17.27
2022-11-04T17:51:51.124Z,20.13
2022-11-04T18:21:58.186Z,16.37
2022-11-04T18:47:20.927Z,17.90
2022-11-04T19:07:53.203Z,16.17
2022-11-04T20:04:03.831Z,16.90
2022-11-04T20:34:32.877Z,19.13
2022-11-04T21:09:19.326Z,20.83
2022-11-04T21:40:26.662Z,20.10
2022-11-04T22:10:38.451Z,17.00
2022-11-04T22:41:18.795Z,19.53
2022-11-04T23:06:39.169Z,19.43
2022-11-04T23:41:38.640Z,19.47
